Time;durP1;ratioP1;P1;durP2;ratioP2;P2;SDS_P1;SDS_P2;PMS_P1;PMS_P2;Temp;Humidity;BMP_temperature;BMP_pressure;BME280_temperature;BME280_humidity;BME280_pressure;Samples;Min_cycle;Max_cycle;Signal;HPM_P1;HPM_P2
2022/07/30 00:00:55;;;;;;;;;;;16.10;99.90;;;;;;5105366;27;20110;-56
2022/07/30 00:03:35;;;;;;;;;;;16.00;99.90;;;;;;5117657;27;19912;-57
2022/07/30 00:06:14;;;;;;;;;;;15.90;99.90;;;;;;5124723;27;19920;-57
2022/07/30 00:08:54;;;;;;;;;;;16.00;99.90;;;;;;5083067;28;20315;-57
2022/07/30 00:11:34;;;;;;;;;;;15.90;99.90;;;;;;5125529;27;19912;-56
2022/07/30 00:14:14;;;;;;;;;;;15.90;99.90;;;;;;5125900;27;19925;-58
2022/07/30 00:16:54;;;;;;;;;;;16.00;99.90;;;;;;5084219;28;19917;-58
2022/07/30 00:19:36;;;;;;;;;;;15.90;99.90;;;;;;5119188;27;20319;-57
2022/07/30 00:22:17;;;;;;;;;;;15.90;99.90;;;;;;5104598;27;19918;-57
2022/07/30 00:24:56;;;;;;;;;;;15.90;99.90;;;;;;5125755;27;19945;-58
2022/07/30 00:27:36;;;;;;;;;;;15.80;99.90;;;;;;5104158;27;20331;-57
2022/07/30 00:30:16;;;;;;;;;;;15.80;99.90;;;;;;5126109;27;20292;-57
2022/07/30 00:32:56;;;;;;;;;;;15.90;99.90;;;;;;5106813;27;20385;-56
2022/07/30 00:35:36;;;;;;;;;;;15.80;99.90;;;;;;5126347;27;19919;-56
2022/07/30 00:38:16;;;;;;;;;;;15.80;99.90;;;;;;5125421;27;19918;-56
2022/07/30 00:40:57;;;;;;;;;;;15.80;99.90;;;;;;5106081;27;19918;-57
2022/07/30 00:43:37;;;;;;;;;;;15.90;99.90;;;;;;5126114;27;19918;-57
2022/07/30 00:46:17;;;;;;;;;;;15.80;99.90;;;;;;5124841;27;19981;-56
2022/07/30 00:48:57;;;;;;;;;;;15.80;99.90;;;;;;5124696;27;19918;-57
2022/07/30 00:51:36;;;;;;;;;;;16.00;99.90;;;;;;5125762;27;19918;-56
2022/07/30 00:54:16;;;;;;;;;;;15.80;99.90;;;;;;5126149;27;20291;-56
2022/07/30 00:56:56;;;;;;;;;;;15.80;99.90;;;;;;5124743;27;19922;-57
2022/07/30 00:59:36;;;;;;;;;;;16.00;99.90;;;;;;5120021;27;19916;-57
2022/07/30 01:02:16;;;;;;;;;;;16.00;99.90;;;;;;5107025;27;19916;-57
2022/07/30 01:04:56;;;;;;;;;;;15.90;99.90;;;;;;5126065;27;19953;-58
2022/07/30 01:07:35;;;;;;;;;;;15.80;99.90;;;;;;5104725;27;19912;-56
2022/07/30 01:10:15;;;;;;;;;;;15.90;99.90;;;;;;5114211;27;20407;-57
2022/07/30 01:12:57;;;;;;;;;;;16.00;99.90;;;;;;5125605;27;19915;-57
2022/07/30 01:15:38;;;;;;;;;;;16.10;99.90;;;;;;5104760;27;19926;-57
2022/07/30 01:18:18;;;;;;;;;;;16.00;99.90;;;;;;5105278;27;19928;-57
2022/07/30 01:21:01;;;;;;;;;;;16.00;99.90;;;;;;5118997;27;19922;-57
2022/07/30 01:23:43;;;;;;;;;;;16.00;99.90;;;;;;5125300;27;19926;-57
2022/07/30 01:26:24;;;;;;;;;;;16.10;99.90;;;;;;5145558;27;19918;-56
2022/07/30 01:29:06;;;;;;;;;;;16.10;99.90;;;;;;5102358;27;19926;-56
2022/07/30 01:31:46;;;;;;;;;;;16.20;99.90;;;;;;5105684;27;19912;-57
2022/07/30 01:34:28;;;;;;;;;;;16.30;99.90;;;;;;5126141;27;19911;-57
2022/07/30 01:37:09;;;;;;;;;;;16.30;99.90;;;;;;5123890;27;19922;-57
2022/07/30 01:39:51;;;;;;;;;;;16.30;99.90;;;;;;5105224;27;20324;-57
2022/07/30 01:42:32;;;;;;;;;;;16.30;99.90;;;;;;5105409;27;19912;-57
2022/07/30 01:45:13;;;;;;;;;;;16.40;99.90;;;;;;5125716;27;19918;-56
2022/07/30 01:47:54;;;;;;;;;;;16.50;99.90;;;;;;5125134;27;19912;-57
2022/07/30 01:50:36;;;;;;;;;;;16.50;99.90;;;;;;5105510;27;20304;-57
2022/07/30 01:53:17;;;;;;;;;;;16.30;99.90;;;;;;5117103;27;19961;-56
2022/07/30 01:56:00;;;;;;;;;;;16.30;99.90;;;;;;5104329;27;20395;-58
2022/07/30 01:58:40;;;;;;;;;;;16.40;99.90;;;;;;5105193;27;19922;-58
2022/07/30 02:01:34;;;;;;;;;;;16.30;99.90;;;;;;5125947;27;20387;-57
2022/07/30 02:04:15;;;;;;;;;;;16.20;99.90;;;;;;5126288;27;19911;-57
2022/07/30 02:06:59;;;;;;;;;;;16.10;99.90;;;;;;5124847;27;19938;-57
2022/07/30 02:09:43;;;;;;;;;;;16.30;99.90;;;;;;5118844;27;20403;-57
2022/07/30 02:12:29;;;;;;;;;;;16.10;99.90;;;;;;5126106;27;19912;-56
2022/07/30 02:15:14;;;;;;;;;;;16.10;99.90;;;;;;5105104;27;19930;-58
2022/07/30 02:17:57;;;;;;;;;;;16.20;99.90;;;;;;5124928;27;19918;-57
2022/07/30 02:20:39;;;;;;;;;;;16.20;99.90;;;;;;5125733;27;19912;-57
2022/07/30 02:23:20;;;;;;;;;;;16.20;99.90;;;;;;5125098;27;20304;-57
2022/07/30 02:26:02;;;;;;;;;;;16.10;99.90;;;;;;5124869;27;19922;-58
2022/07/30 02:28:43;;;;;;;;;;;16.10;99.90;;;;;;5125989;27;20570;-57
2022/07/30 02:31:25;;;;;;;;;;;16.20;99.90;;;;;;5146440;27;19918;-57
2022/07/30 02:34:08;;;;;;;;;;;16.20;99.90;;;;;;5105580;27;19916;-56
2022/07/30 02:36:49;;;;;;;;;;;16.20;99.90;;;;;;5125032;27;20377;-57
2022/07/30 02:39:30;;;;;;;;;;;16.20;99.90;;;;;;5119828;27;19919;-56
2022/07/30 02:42:10;;;;;;;;;;;16.30;99.90;;;;;;5125589;27;19915;-57
2022/07/30 02:44:52;;;;;;;;;;;16.20;99.90;;;;;;5125988;27;19926;-57
2022/07/30 02:47:34;;;;;;;;;;;16.10;99.90;;;;;;5125529;27;19926;-56
2022/07/30 02:50:18;;;;;;;;;;;16.20;99.90;;;;;;5072864;28;19912;-57
2022/07/30 02:53:00;;;;;;;;;;;16.00;99.90;;;;;;5124675;27;19938;-57
2022/07/30 02:55:40;;;;;;;;;;;15.80;99.90;;;;;;5102370;27;20223;-57
2022/07/30 02:58:24;;;;;;;;;;;15.80;99.90;;;;;;5122398;27;19922;-57
2022/07/30 03:01:05;;;;;;;;;;;15.80;99.90;;;;;;5107363;27;19953;-57
2022/07/30 03:03:46;;;;;;;;;;;15.80;99.90;;;;;;5121158;27;19930;-57
2022/07/30 03:06:26;;;;;;;;;;;15.80;99.90;;;;;;5124497;27;19922;-57
2022/07/30 03:09:05;;;;;;;;;;;15.90;99.90;;;;;;5122834;27;19918;-58
2022/07/30 03:11:45;;;;;;;;;;;15.80;99.90;;;;;;5124464;27;20339;-57
2022/07/30 03:14:25;;;;;;;;;;;15.80;99.90;;;;;;5123322;27;20372;-58
2022/07/30 03:17:06;;;;;;;;;;;15.90;99.90;;;;;;5123388;27;20369;-58
2022/07/30 03:19:48;;;;;;;;;;;16.00;99.90;;;;;;5122567;27;19953;-57
2022/07/30 03:22:29;;;;;;;;;;;16.00;99.90;;;;;;5121982;27;19918;-57
2022/07/30 03:25:11;;;;;;;;;;;15.90;99.90;;;;;;5136505;27;19911;-57
2022/07/30 03:27:54;;;;;;;;;;;15.90;99.90;;;;;;5102766;27;20315;-57
2022/07/30 03:30:35;;;;;;;;;;;16.00;99.90;;;;;;5099961;27;19913;-57
2022/07/30 03:33:16;;;;;;;;;;;15.90;99.90;;;;;;5124288;27;20277;-57
2022/07/30 03:35:57;;;;;;;;;;;16.00;99.90;;;;;;5123846;27;19926;-57
2022/07/30 03:38:39;;;;;;;;;;;15.90;99.90;;;;;;5102316;27;19916;-57
2022/07/30 03:41:20;;;;;;;;;;;15.90;99.90;;;;;;5125208;27;19930;-57
2022/07/30 03:44:02;;;;;;;;;;;15.90;99.90;;;;;;5123245;27;19912;-57
2022/07/30 03:46:43;;;;;;;;;;;15.80;99.90;;;;;;5105895;27;19923;-57
2022/07/30 03:49:24;;;;;;;;;;;15.90;99.90;;;;;;5137201;27;19918;-57
2022/07/30 03:52:04;;;;;;;;;;;16.00;99.90;;;;;;5124860;27;20567;-57
2022/07/30 03:54:45;;;;;;;;;;;15.80;99.90;;;;;;5102268;27;20422;-57
2022/07/30 03:57:58;;;;;;;;;;;15.80;99.90;;;;;;5123293;27;20528;-57
2022/07/30 04:00:46;;;;;;;;;;;15.90;99.90;;;;;;5120281;27;19938;-57
2022/07/30 04:03:28;;;;;;;;;;;16.00;99.90;;;;;;5082020;28;19912;-57
2022/07/30 04:06:12;;;;;;;;;;;15.90;99.90;;;;;;5124134;27;19938;-57
2022/07/30 04:08:52;;;;;;;;;;;15.90;99.90;;;;;;5122814;27;20375;-58
2022/07/30 04:11:32;;;;;;;;;;;15.90;99.90;;;;;;5124869;27;19926;-57
2022/07/30 04:14:16;;;;;;;;;;;15.80;99.90;;;;;;5123512;27;19916;-57
2022/07/30 04:17:02;;;;;;;;;;;15.70;99.90;;;;;;5104333;27;19926;-59
2022/07/30 04:19:44;;;;;;;;;;;15.70;99.90;;;;;;5122015;27;19912;-57
2022/07/30 04:22:33;;;;;;;;;;;15.80;99.90;;;;;;5121754;27;19925;-57
2022/07/30 04:25:15;;;;;;;;;;;15.90;99.90;;;;;;5122754;27;19953;-57
2022/07/30 04:27:56;;;;;;;;;;;15.90;99.90;;;;;;5123636;27;19915;-57
2022/07/30 04:30:36;;;;;;;;;;;16.00;99.90;;;;;;5117651;27;19929;-57
2022/07/30 04:33:18;;;;;;;;;;;15.90;99.90;;;;;;5124659;27;20498;-58
2022/07/30 04:36:36;;;;;;;;;;;16.00;99.90;;;;;;5123972;27;19912;-57
2022/07/30 04:39:16;;;;;;;;;;;16.00;99.90;;;;;;5150615;27;19915;-57
2022/07/30 04:41:55;;;;;;;;;;;16.00;99.90;;;;;;5125131;27;19918;-57
2022/07/30 04:44:42;;;;;;;;;;;16.00;99.90;;;;;;5123333;27;19918;-57
2022/07/30 04:47:41;;;;;;;;;;;16.10;99.90;;;;;;5104610;27;19934;-57
2022/07/30 04:50:45;;;;;;;;;;;16.10;99.90;;;;;;5122710;27;19911;-57
2022/07/30 04:53:31;;;;;;;;;;;16.00;99.90;;;;;;5081761;28;19916;-57
2022/07/30 04:56:15;;;;;;;;;;;16.00;99.90;;;;;;5122712;27;19912;-57
2022/07/30 04:58:56;;;;;;;;;;;16.00;99.90;;;;;;5123148;27;19912;-57
2022/07/30 05:01:39;;;;;;;;;;;16.10;99.90;;;;;;5106661;27;20077;-57
2022/07/30 05:04:20;;;;;;;;;;;16.20;99.90;;;;;;5101209;27;19919;-57
2022/07/30 05:07:02;;;;;;;;;;;16.40;99.90;;;;;;5124003;27;20254;-57
2022/07/30 05:09:43;;;;;;;;;;;16.50;99.90;;;;;;5121960;27;19912;-57
2022/07/30 05:12:31;;;;;;;;;;;16.70;99.90;;;;;;5124321;27;19915;-57
2022/07/30 05:15:13;;;;;;;;;;;16.70;99.90;;;;;;5101518;27;19930;-57
2022/07/30 05:17:53;;;;;;;;;;;16.70;99.90;;;;;;5142387;27;19911;-57
2022/07/30 05:20:33;;;;;;;;;;;16.60;99.90;;;;;;5102247;27;19915;-57
2022/07/30 05:23:21;;;;;;;;;;;16.60;99.90;;;;;;5122206;27;20164;-57
2022/07/30 05:26:25;;;;;;;;;;;16.50;99.90;;;;;;5122498;27;19912;-57
2022/07/30 05:29:06;;;;;;;;;;;16.60;99.90;;;;;;5099919;27;19916;-57
2022/07/30 05:31:57;;;;;;;;;;;16.60;99.90;;;;;;5103904;27;19945;-57
2022/07/30 05:34:39;;;;;;;;;;;16.70;99.90;;;;;;5123256;27;19922;-56
2022/07/30 05:37:20;;;;;;;;;;;16.80;99.90;;;;;;5123458;27;19918;-57
2022/07/30 05:40:00;;;;;;;;;;;17.00;99.90;;;;;;5100463;27;19912;-57
2022/07/30 05:42:59;;;;;;;;;;;17.10;99.90;;;;;;5124222;27;20276;-57
2022/07/30 05:45:40;;;;;;;;;;;17.30;99.90;;;;;;5123173;27;19922;-57
2022/07/30 05:48:20;;;;;;;;;;;17.50;99.90;;;;;;5123089;27;19918;-57
2022/07/30 05:51:00;;;;;;;;;;;17.70;99.90;;;;;;5123269;27;19934;-57
2022/07/30 05:53:40;;;;;;;;;;;17.70;99.90;;;;;;5101807;27;19920;-57
2022/07/30 05:56:40;;;;;;;;;;;17.80;99.90;;;;;;5062944;28;19913;-57
2022/07/30 05:59:39;;;;;;;;;;;17.80;99.90;;;;;;5121483;27;20328;-56
2022/07/30 06:02:32;;;;;;;;;;;17.80;99.90;;;;;;5105895;27;20405;-57
2022/07/30 06:05:28;;;;;;;;;;;17.80;99.90;;;;;;5101229;27;19916;-57
2022/07/30 06:08:13;;;;;;;;;;;17.90;99.90;;;;;;5124009;27;19925;-57
2022/07/30 06:10:52;;;;;;;;;;;17.90;99.90;;;;;;5088197;27;19974;-57
2022/07/30 06:13:32;;;;;;;;;;;18.10;99.90;;;;;;5122903;27;19912;-57
2022/07/30 06:16:14;;;;;;;;;;;18.40;99.90;;;;;;5123411;27;19918;-57
2022/07/30 06:18:53;;;;;;;;;;;18.70;99.90;;;;;;5106776;27;19918;-57
2022/07/30 06:21:49;;;;;;;;;;;19.00;99.90;;;;;;5103067;27;19922;-57
2022/07/30 06:24:31;;;;;;;;;;;19.40;99.90;;;;;;5122004;27;19938;-57
2022/07/30 06:27:22;;;;;;;;;;;19.40;99.90;;;;;;5123532;27;19912;-57
2022/07/30 06:30:02;;;;;;;;;;;19.40;99.90;;;;;;5121359;27;19912;-57
2022/07/30 06:32:44;;;;;;;;;;;19.40;99.90;;;;;;5104404;27;19916;-57
2022/07/30 06:35:24;;;;;;;;;;;19.30;99.90;;;;;;5123364;27;20274;-57
2022/07/30 06:38:04;;;;;;;;;;;19.50;99.90;;;;;;5161511;27;19919;-57
2022/07/30 06:40:46;;;;;;;;;;;19.50;99.90;;;;;;5108319;27;19916;-57
2022/07/30 06:43:30;;;;;;;;;;;19.40;99.90;;;;;;5102794;27;19953;-57
2022/07/30 06:46:31;;;;;;;;;;;19.30;99.90;;;;;;5123886;27;19912;-57
2022/07/30 06:49:11;;;;;;;;;;;19.30;99.90;;;;;;5119136;27;19919;-57
2022/07/30 06:51:51;;;;;;;;;;;19.10;99.90;;;;;;5123264;27;19919;-57
2022/07/30 06:54:32;;;;;;;;;;;18.80;99.90;;;;;;5118548;27;20296;-57
2022/07/30 06:57:41;;;;;;;;;;;18.90;99.90;;;;;;5101893;27;19919;-57
2022/07/30 07:00:29;;;;;;;;;;;19.10;99.90;;;;;;5118510;27;20316;-57
2022/07/30 07:03:10;;;;;;;;;;;19.40;99.90;;;;;;5121401;27;19912;-57
2022/07/30 07:05:52;;;;;;;;;;;19.40;99.90;;;;;;5103089;27;20454;-57
2022/07/30 07:08:31;;;;;;;;;;;19.50;99.90;;;;;;5100258;27;19927;-57
2022/07/30 07:11:13;;;;;;;;;;;19.80;99.90;;;;;;5120300;27;19916;-57
2022/07/30 07:13:59;;;;;;;;;;;19.90;99.90;;;;;;5118088;27;19912;-57
2022/07/30 07:16:45;;;;;;;;;;;20.00;99.90;;;;;;5096444;27;19930;-57
2022/07/30 07:19:46;;;;;;;;;;;20.80;99.90;;;;;;5118907;27;19922;-57
2022/07/30 07:22:26;;;;;;;;;;;21.20;99.90;;;;;;5121105;27;19930;-57
2022/07/30 07:25:08;;;;;;;;;;;21.00;99.90;;;;;;5121909;27;19934;-58
2022/07/30 07:27:48;;;;;;;;;;;20.70;99.90;;;;;;5121319;27;20601;-57
2022/07/30 07:30:28;;;;;;;;;;;20.30;99.90;;;;;;5120670;27;19912;-57
2022/07/30 07:33:10;;;;;;;;;;;20.30;99.90;;;;;;5124145;27;19920;-57
2022/07/30 07:35:53;;;;;;;;;;;20.60;99.90;;;;;;5119445;27;19922;-57
2022/07/30 07:38:40;;;;;;;;;;;21.00;99.90;;;;;;5121819;27;19912;-58
2022/07/30 07:41:20;;;;;;;;;;;21.30;99.90;;;;;;5102824;27;19912;-58
2022/07/30 07:44:00;;;;;;;;;;;21.50;99.90;;;;;;5124396;27;19922;-58
2022/07/30 07:46:45;;;;;;;;;;;21.90;99.90;;;;;;5118445;27;19918;-58
2022/07/30 07:49:25;;;;;;;;;;;22.50;99.90;;;;;;5112347;27;20284;-58
2022/07/30 07:52:06;;;;;;;;;;;22.80;99.90;;;;;;5085467;27;19919;-58
2022/07/30 07:54:46;;;;;;;;;;;23.20;99.90;;;;;;5123645;27;19918;-58
2022/07/30 07:57:26;;;;;;;;;;;23.60;99.90;;;;;;5122434;27;19965;-59
2022/07/30 08:00:06;;;;;;;;;;;23.70;99.90;;;;;;5092541;27;19926;-58
2022/07/30 08:02:49;;;;;;;;;;;23.40;99.90;;;;;;5123123;27;20280;-58
2022/07/30 08:05:30;;;;;;;;;;;22.90;99.90;;;;;;5124202;27;20214;-58
2022/07/30 08:08:31;;;;;;;;;;;23.10;99.90;;;;;;5124214;27;19928;-58
2022/07/30 08:11:31;;;;;;;;;;;23.50;99.90;;;;;;5124747;27;19916;-58
2022/07/30 08:14:30;;;;;;;;;;;23.70;99.90;;;;;;5104032;27;19912;-58
2022/07/30 08:17:43;;;;;;;;;;;24.00;99.90;;;;;;5103197;27;19961;-58
2022/07/30 08:20:27;;;;;;;;;;;24.00;99.90;;;;;;5126169;27;19925;-59
2022/07/30 08:23:08;;;;;;;;;;;24.30;99.90;;;;;;5124710;27;19912;-59
2022/07/30 08:25:48;;;;;;;;;;;24.00;99.90;;;;;;5123638;27;20284;-58
2022/07/30 08:28:28;;;;;;;;;;;23.30;99.90;;;;;;5124844;27;19912;-58
2022/07/30 08:31:09;;;;;;;;;;;22.50;99.90;;;;;;5119782;27;19922;-58
2022/07/30 08:33:49;;;;;;;;;;;22.40;99.90;;;;;;5123292;27;20261;-58
2022/07/30 08:36:30;;;;;;;;;;;22.30;99.90;;;;;;5123708;27;19918;-58
2022/07/30 08:39:12;;;;;;;;;;;22.40;99.90;;;;;;5083200;27;19912;-58
2022/07/30 08:41:54;;;;;;;;;;;22.80;99.90;;;;;;5143518;27;19916;-58
2022/07/30 08:44:35;;;;;;;;;;;22.90;99.90;;;;;;5084439;28;19920;-58
2022/07/30 08:47:17;;;;;;;;;;;23.80;99.90;;;;;;5103041;27;19913;-58
2022/07/30 08:50:15;;;;;;;;;;;24.30;99.90;;;;;;5104006;27;19918;-58
2022/07/30 08:53:17;;;;;;;;;;;24.20;99.90;;;;;;5124285;27;19918;-57
2022/07/30 08:55:57;;;;;;;;;;;23.40;99.90;;;;;;5103008;27;20442;-58
2022/07/30 08:58:37;;;;;;;;;;;22.80;99.90;;;;;;5084243;28;19912;-59
2022/07/30 09:01:17;;;;;;;;;;;23.30;99.90;;;;;;5097654;27;19926;-58
2022/07/30 09:03:57;;;;;;;;;;;23.50;99.90;;;;;;5125583;27;19918;-58
2022/07/30 09:06:40;;;;;;;;;;;23.20;99.90;;;;;;5124596;27;19912;-58
2022/07/30 09:09:20;;;;;;;;;;;22.70;99.90;;;;;;5121295;27;19912;-58
2022/07/30 09:11:59;;;;;;;;;;;22.50;99.90;;;;;;5125994;27;19945;-58
2022/07/30 09:14:43;;;;;;;;;;;22.70;99.90;;;;;;5105638;27;19912;-58
2022/07/30 09:17:24;;;;;;;;;;;23.40;99.90;;;;;;5084626;28;19912;-57
2022/07/30 09:20:05;;;;;;;;;;;23.50;99.90;;;;;;5105429;27;19926;-58
2022/07/30 09:22:50;;;;;;;;;;;23.60;99.90;;;;;;5126989;27;19912;-57
2022/07/30 09:25:49;;;;;;;;;;;23.90;99.90;;;;;;5125094;27;19912;-57
2022/07/30 09:28:48;;;;;;;;;;;24.40;99.90;;;;;;5105015;27;19912;-57
2022/07/30 09:31:28;;;;;;;;;;;24.80;99.90;;;;;;5099268;27;19923;-57
2022/07/30 09:34:29;;;;;;;;;;;24.90;99.90;;;;;;5117706;27;19920;-57
2022/07/30 09:37:18;;;;;;;;;;;25.40;99.90;;;;;;5122349;27;20426;-57
2022/07/30 09:40:30;;;;;;;;;;;25.20;99.90;;;;;;5109252;27;19913;-57
2022/07/30 09:43:46;;;;;;;;;;;25.20;99.90;;;;;;5122809;27;19912;-57
2022/07/30 09:46:46;;;;;;;;;;;25.10;99.90;;;;;;5123559;27;19916;-57
2022/07/30 09:49:29;;;;;;;;;;;24.50;99.90;;;;;;5123637;27;19911;-56
2022/07/30 09:52:08;;;;;;;;;;;24.30;99.90;;;;;;5124613;27;19934;-57
2022/07/30 09:54:51;;;;;;;;;;;24.10;99.90;;;;;;5124834;27;19918;-57
2022/07/30 09:57:31;;;;;;;;;;;24.30;99.90;;;;;;5123428;27;19926;-57
2022/07/30 10:00:19;;;;;;;;;;;24.80;99.90;;;;;;5158264;27;19915;-57
2022/07/30 10:03:17;;;;;;;;;;;25.00;99.90;;;;;;5124508;27;20322;-57
2022/07/30 10:06:15;;;;;;;;;;;25.00;99.90;;;;;;5123023;27;20224;-57
2022/07/30 10:08:58;;;;;;;;;;;25.40;99.90;;;;;;5122377;27;19916;-57
2022/07/30 10:11:39;;;;;;;;;;;25.40;99.90;;;;;;5124065;27;19930;-57
2022/07/30 10:14:21;;;;;;;;;;;25.40;99.90;;;;;;5123029;27;20300;-57
2022/07/30 10:17:03;;;;;;;;;;;25.20;99.90;;;;;;5123215;27;19989;-57
2022/07/30 10:19:46;;;;;;;;;;;24.90;99.90;;;;;;5114099;27;19934;-57
2022/07/30 10:22:47;;;;;;;;;;;24.80;99.90;;;;;;5122826;27;20323;-57
2022/07/30 10:25:46;;;;;;;;;;;24.90;99.90;;;;;;5124324;27;19918;-57
2022/07/30 10:28:46;;;;;;;;;;;25.30;99.90;;;;;;5105457;27;19918;-56
2022/07/30 10:31:27;;;;;;;;;;;25.40;99.90;;;;;;5133370;27;19912;-57
2022/07/30 10:34:09;;;;;;;;;;;25.30;99.90;;;;;;5105145;27;19926;-57
2022/07/30 10:36:50;;;;;;;;;;;25.50;99.90;;;;;;5104379;27;19930;-57
2022/07/30 10:39:32;;;;;;;;;;;26.00;99.90;;;;;;5124947;27;19916;-57
2022/07/30 10:42:17;;;;;;;;;;;26.10;99.90;;;;;;5103924;27;19912;-57
2022/07/30 10:45:02;;;;;;;;;;;26.10;99.50;;;;;;5124181;27;20304;-57
2022/07/30 10:47:43;;;;;;;;;;;25.80;97.90;;;;;;5100614;27;20206;-56
2022/07/30 10:50:25;;;;;;;;;;;24.70;99.90;;;;;;5104526;27;19926;-57
2022/07/30 10:53:05;;;;;;;;;;;23.70;99.90;;;;;;5124153;27;20426;-57
2022/07/30 10:55:45;;;;;;;;;;;22.70;99.90;;;;;;5124110;27;19911;-57
2022/07/30 10:58:25;;;;;;;;;;;20.50;99.90;;;;;;5124323;27;19918;-57
2022/07/30 11:01:05;;;;;;;;;;;18.50;99.90;;;;;;5121165;27;19918;-57
2022/07/30 11:04:05;;;;;;;;;;;18.20;99.90;;;;;;5124078;27;19919;-57
2022/07/30 11:06:45;;;;;;;;;;;18.20;99.90;;;;;;5122822;27;19922;-57
2022/07/30 11:09:38;;;;;;;;;;;18.20;99.90;;;;;;5123498;27;20416;-57
2022/07/30 11:12:38;;;;;;;;;;;18.30;99.90;;;;;;5123384;27;19922;-56
2022/07/30 11:15:20;;;;;;;;;;;18.50;99.90;;;;;;5122113;27;19926;-57
2022/07/30 11:18:04;;;;;;;;;;;18.50;99.90;;;;;;5121871;27;19912;-56
2022/07/30 11:21:04;;;;;;;;;;;18.70;99.90;;;;;;5106778;27;20288;-57
2022/07/30 11:23:45;;;;;;;;;;;18.70;99.90;;;;;;5122719;27;20474;-57
2022/07/30 11:26:45;;;;;;;;;;;18.50;99.90;;;;;;5122398;27;19915;-57
2022/07/30 11:29:37;;;;;;;;;;;18.40;99.90;;;;;;5107598;27;19912;-56
2022/07/30 11:32:25;;;;;;;;;;;18.60;99.90;;;;;;5100670;27;19924;-57
2022/07/30 11:35:13;;;;;;;;;;;18.90;99.90;;;;;;5121137;27;19918;-57
2022/07/30 11:38:05;;;;;;;;;;;19.30;99.90;;;;;;5122690;27;19922;-56
2022/07/30 11:40:58;;;;;;;;;;;19.70;99.90;;;;;;5124086;27;19919;-57
2022/07/30 11:43:40;;;;;;;;;;;20.30;99.90;;;;;;5124529;27;19937;-56
2022/07/30 11:46:21;;;;;;;;;;;21.20;99.90;;;;;;5144355;27;19916;-57
2022/07/30 11:49:07;;;;;;;;;;;21.50;99.90;;;;;;5120903;27;20320;-57
2022/07/30 11:51:48;;;;;;;;;;;22.00;99.90;;;;;;5124283;27;19912;-57
2022/07/30 11:54:28;;;;;;;;;;;22.40;99.90;;;;;;5144416;27;19912;-57
2022/07/30 11:57:08;;;;;;;;;;;22.70;99.90;;;;;;5153593;27;19916;-57
2022/07/30 11:59:54;;;;;;;;;;;23.00;99.90;;;;;;5100253;27;19912;-57
2022/07/30 12:02:36;;;;;;;;;;;23.20;99.90;;;;;;5067990;28;19919;-57
2022/07/30 12:05:16;;;;;;;;;;;23.30;99.90;;;;;;5095705;27;19922;-57
2022/07/30 12:08:00;;;;;;;;;;;23.30;99.90;;;;;;5122054;27;19915;-57
2022/07/30 12:10:40;;;;;;;;;;;23.00;99.90;;;;;;5123341;27;20016;-57
2022/07/30 12:13:21;;;;;;;;;;;22.90;99.90;;;;;;5104425;27;19919;-57
2022/07/30 12:16:07;;;;;;;;;;;23.20;99.90;;;;;;5114305;27;19916;-57
2022/07/30 12:18:47;;;;;;;;;;;23.50;99.90;;;;;;5124698;27;19912;-57
2022/07/30 12:21:27;;;;;;;;;;;23.90;99.90;;;;;;5125177;27;19912;-57
2022/07/30 12:24:10;;;;;;;;;;;24.20;99.90;;;;;;5144535;27;19949;-57
2022/07/30 12:26:50;;;;;;;;;;;24.40;99.90;;;;;;5124435;27;19927;-57
2022/07/30 12:29:31;;;;;;;;;;;24.60;99.90;;;;;;5104576;27;19922;-57
2022/07/30 12:32:11;;;;;;;;;;;24.90;99.90;;;;;;5125957;27;19926;-57
2022/07/30 12:34:55;;;;;;;;;;;25.30;99.90;;;;;;5126296;27;19918;-57
2022/07/30 12:37:36;;;;;;;;;;;25.20;99.90;;;;;;5125534;27;19941;-57
2022/07/30 12:40:16;;;;;;;;;;;25.40;99.90;;;;;;5125777;27;20365;-57
2022/07/30 12:42:55;;;;;;;;;;;25.20;99.90;;;;;;5126178;27;19912;-58
2022/07/30 12:45:35;;;;;;;;;;;25.40;99.90;;;;;;5126221;27;20088;-58
2022/07/30 12:48:15;;;;;;;;;;;25.60;99.90;;;;;;5126062;27;19918;-58
2022/07/30 12:51:05;;;;;;;;;;;25.80;99.90;;;;;;5105674;27;19916;-57
2022/07/30 12:53:46;;;;;;;;;;;26.30;99.90;;;;;;5129649;27;19912;-57
2022/07/30 12:56:29;;;;;;;;;;;26.40;99.90;;;;;;5125774;27;19912;-57
2022/07/30 12:59:20;;;;;;;;;;;26.80;99.90;;;;;;5103023;27;20392;-57
2022/07/30 13:02:00;;;;;;;;;;;26.70;99.90;;;;;;5112706;27;19946;-57
2022/07/30 13:04:51;;;;;;;;;;;27.40;99.90;;;;;;5153386;27;19916;-57
2022/07/30 13:07:31;;;;;;;;;;;27.70;94.90;;;;;;5084249;28;20181;-57
2022/07/30 13:10:12;;;;;;;;;;;27.40;93.70;;;;;;5114564;27;19912;-57
2022/07/30 13:12:52;;;;;;;;;;;27.30;89.30;;;;;;5126005;27;19912;-57
2022/07/30 13:15:32;;;;;;;;;;;27.00;93.90;;;;;;5126490;27;19918;-57
2022/07/30 13:18:11;;;;;;;;;;;26.90;90.00;;;;;;5125851;27;19926;-57
2022/07/30 13:20:52;;;;;;;;;;;26.90;90.90;;;;;;5126570;27;19918;-57
2022/07/30 13:23:31;;;;;;;;;;;26.40;81.60;;;;;;5106046;27;19912;-58
2022/07/30 13:26:11;;;;;;;;;;;25.70;85.10;;;;;;5123870;27;20403;-57
2022/07/30 13:28:51;;;;;;;;;;;25.10;95.60;;;;;;5119322;27;19926;-57
2022/07/30 13:31:31;;;;;;;;;;;22.30;99.90;;;;;;5120185;27;19916;-56
2022/07/30 13:34:10;;;;;;;;;;;20.20;99.90;;;;;;5105871;27;19916;-57
2022/07/30 13:36:50;;;;;;;;;;;19.30;99.90;;;;;;5142936;27;19922;-58
2022/07/30 13:39:30;;;;;;;;;;;19.00;99.90;;;;;;5118762;27;19957;-58
2022/07/30 13:42:10;;;;;;;;;;;18.80;99.90;;;;;;5125170;27;20393;-58
2022/07/30 13:44:50;;;;;;;;;;;18.70;99.90;;;;;;5125503;27;19919;-57
2022/07/30 13:47:30;;;;;;;;;;;18.80;99.90;;;;;;5124653;27;19918;-58
2022/07/30 13:50:11;;;;;;;;;;;18.40;99.90;;;;;;5125328;27;20377;-57
2022/07/30 13:52:51;;;;;;;;;;;18.20;99.90;;;;;;5118447;27;19918;-58
2022/07/30 13:55:31;;;;;;;;;;;18.50;99.90;;;;;;5109863;27;19916;-58
2022/07/30 13:58:10;;;;;;;;;;;19.10;99.90;;;;;;5142831;27;19916;-58
2022/07/30 14:00:50;;;;;;;;;;;19.90;99.90;;;;;;5106729;27;19954;-58
2022/07/30 14:03:30;;;;;;;;;;;20.30;99.90;;;;;;5083686;28;20309;-58
2022/07/30 14:06:10;;;;;;;;;;;20.30;99.90;;;;;;5104145;27;19912;-58
2022/07/30 14:08:50;;;;;;;;;;;20.00;99.90;;;;;;5083973;28;19912;-58
2022/07/30 14:11:30;;;;;;;;;;;20.00;99.90;;;;;;5126006;27;19926;-57
2022/07/30 14:14:11;;;;;;;;;;;20.00;99.90;;;;;;5125565;27;20372;-58
2022/07/30 14:16:51;;;;;;;;;;;19.70;99.90;;;;;;5122609;27;19918;-58
2022/07/30 14:19:31;;;;;;;;;;;19.80;99.90;;;;;;5118155;27;19918;-58
2022/07/30 14:22:10;;;;;;;;;;;19.50;99.90;;;;;;5124738;27;19916;-58
2022/07/30 14:24:50;;;;;;;;;;;19.40;99.90;;;;;;5125360;27;19915;-59
2022/07/30 14:27:30;;;;;;;;;;;19.30;99.90;;;;;;5103301;27;20457;-58
2022/07/30 14:30:10;;;;;;;;;;;19.30;99.90;;;;;;5113635;27;20381;-57
2022/07/30 14:32:51;;;;;;;;;;;19.50;99.90;;;;;;5104333;27;19954;-57
2022/07/30 14:35:31;;;;;;;;;;;19.90;99.90;;;;;;5125401;27;19919;-59
2022/07/30 14:38:11;;;;;;;;;;;20.50;99.90;;;;;;5104796;27;20419;-57
2022/07/30 14:40:51;;;;;;;;;;;21.20;99.90;;;;;;5104367;27;20296;-57
2022/07/30 14:43:31;;;;;;;;;;;21.80;99.90;;;;;;5124039;27;19922;-56
2022/07/30 14:46:11;;;;;;;;;;;22.40;99.90;;;;;;5122829;27;19918;-57
2022/07/30 14:48:50;;;;;;;;;;;22.80;99.90;;;;;;5103077;27;19945;-57
2022/07/30 14:51:30;;;;;;;;;;;22.80;99.90;;;;;;5124412;27;19911;-57
2022/07/30 14:54:11;;;;;;;;;;;23.10;99.90;;;;;;5124167;27;20292;-57
2022/07/30 14:56:52;;;;;;;;;;;23.60;99.90;;;;;;5124850;27;19912;-57
2022/07/30 14:59:33;;;;;;;;;;;23.80;99.90;;;;;;5126043;27;19912;-56
2022/07/30 15:02:13;;;;;;;;;;;23.70;99.90;;;;;;5125736;27;19929;-57
2022/07/30 15:04:53;;;;;;;;;;;23.50;99.90;;;;;;5125798;27;19912;-57
2022/07/30 15:07:32;;;;;;;;;;;23.20;99.90;;;;;;5124330;27;19918;-57
2022/07/30 15:10:12;;;;;;;;;;;23.20;99.90;;;;;;5104993;27;20356;-56
2022/07/30 15:12:52;;;;;;;;;;;23.20;99.90;;;;;;5125331;27;20270;-56
2022/07/30 15:15:33;;;;;;;;;;;23.20;99.90;;;;;;5125425;27;19918;-56
2022/07/30 15:18:13;;;;;;;;;;;22.70;99.90;;;;;;5124623;27;19912;-56
2022/07/30 15:20:53;;;;;;;;;;;21.80;99.90;;;;;;5125775;27;19934;-57
2022/07/30 15:23:33;;;;;;;;;;;21.30;99.90;;;;;;5125438;27;20281;-58
2022/07/30 15:26:13;;;;;;;;;;;21.10;99.90;;;;;;5124741;27;19918;-57
2022/07/30 15:28:53;;;;;;;;;;;21.20;99.90;;;;;;5124318;27;19912;-58
2022/07/30 15:31:32;;;;;;;;;;;21.40;99.90;;;;;;5122263;27;19912;-57
2022/07/30 15:34:12;;;;;;;;;;;21.70;99.90;;;;;;5125998;27;19942;-57
2022/07/30 15:36:52;;;;;;;;;;;21.80;99.90;;;;;;5124189;27;19938;-58
2022/07/30 15:39:32;;;;;;;;;;;22.00;99.90;;;;;;5125306;27;20387;-57
2022/07/30 15:42:12;;;;;;;;;;;22.10;99.90;;;;;;5125427;27;19918;-58
2022/07/30 15:44:52;;;;;;;;;;;22.50;99.90;;;;;;5083826;28;19946;-57
2022/07/30 15:47:31;;;;;;;;;;;23.00;99.90;;;;;;5125145;27;19926;-57
2022/07/30 15:50:12;;;;;;;;;;;23.60;99.90;;;;;;5125845;27;20220;-57